createdAt,value
2019-05-19T00:02:10.652Z,13.60
2019-05-19T00:04:36.966Z,13.40
2019-05-19T00:07:03.395Z,13.40
2019-05-19T00:09:29.862Z,13.40
2019-05-19T00:11:56.218Z,13.40
2019-05-19T00:14:22.772Z,13.40
2019-05-19T00:16:49.141Z,13.30
2019-05-19T00:19:26.255Z,13.20
2019-05-19T00:21:43.653Z,13.10
2019-05-19T00:24:10.253Z,13.20
2019-05-19T00:26:36.523Z,13.10
2019-05-19T00:29:03.015Z,13.10
2019-05-19T00:31:29.476Z,13.10
2019-05-19T00:33:55.940Z,13.10
2019-05-19T00:36:22.351Z,13.10
2019-05-19T00:38:48.722Z,13.20
2019-05-19T00:41:15.225Z,13.20
2019-05-19T00:43:41.627Z,13.20
2019-05-19T00:46:08.266Z,13.30
2019-05-19T00:48:34.820Z,13.20
2019-05-19T00:51:01.186Z,13.20
2019-05-19T00:53:27.677Z,13.20
2019-05-19T00:55:54.447Z,13.20
2019-05-19T00:58:21.679Z,13.20
2019-05-19T01:00:48.036Z,13.20
2019-05-19T01:03:14.449Z,13.20
2019-05-19T01:05:40.885Z,13.10
2019-05-19T01:08:07.425Z,13.10
2019-05-19T01:10:33.915Z,13.00
2019-05-19T01:13:00.373Z,13.00
2019-05-19T01:15:26.742Z,13.00
2019-05-19T01:17:53.099Z,13.00
2019-05-19T01:20:19.593Z,13.00
2019-05-19T01:22:46.087Z,13.00
2019-05-19T01:25:12.757Z,13.00
2019-05-19T01:27:39.358Z,13.10
2019-05-19T01:30:07.965Z,13.10
2019-05-19T01:32:34.337Z,13.00
2019-05-19T01:35:01.592Z,13.00
2019-05-19T01:37:27.845Z,13.00
2019-05-19T01:39:54.241Z,13.00
2019-05-19T01:42:20.618Z,13.10
2019-05-19T01:44:47.095Z,13.10
2019-05-19T01:47:13.679Z,13.10
2019-05-19T01:49:40.132Z,13.20
2019-05-19T01:52:06.714Z,13.20
2019-05-19T01:54:33.107Z,13.20
2019-05-19T01:56:59.390Z,13.10
2019-05-19T01:59:26.002Z,13.10
2019-05-19T02:01:52.381Z,13.00
2019-05-19T02:04:18.862Z,13.00
2019-05-19T02:06:45.219Z,13.00
2019-05-19T02:09:11.701Z,13.00
2019-05-19T02:11:38.197Z,12.90
2019-05-19T02:14:04.902Z,12.90
2019-05-19T02:16:31.377Z,12.80
2019-05-19T02:18:57.656Z,12.70
2019-05-19T02:21:24.013Z,12.80
2019-05-19T02:23:50.601Z,12.70
2019-05-19T02:26:17.108Z,12.70
2019-05-19T02:28:43.569Z,12.60
2019-05-19T02:31:10.055Z,12.60
2019-05-19T02:33:36.651Z,12.50
2019-05-19T02:36:03.154Z,12.50
2019-05-19T02:38:29.527Z,12.40
2019-05-19T02:40:57.796Z,12.40
2019-05-19T02:43:24.674Z,12.40
2019-05-19T02:45:54.735Z,12.40
2019-05-19T02:48:22.459Z,12.30
2019-05-19T02:50:52.671Z,12.30
2019-05-19T02:53:18.792Z,12.30
2019-05-19T02:55:45.565Z,12.30
2019-05-19T02:58:12.144Z,12.30
2019-05-19T03:00:40.440Z,12.40
2019-05-19T03:03:06.912Z,12.40
2019-05-19T03:05:34.116Z,12.40
2019-05-19T03:08:00.381Z,12.40
2019-05-19T03:10:26.769Z,12.40
2019-05-19T03:12:53.234Z,12.40
2019-05-19T03:15:19.613Z,12.40
2019-05-19T03:17:46.098Z,12.40
2019-05-19T03:20:12.649Z,12.50
2019-05-19T03:22:39.021Z,12.50
2019-05-19T03:25:05.410Z,12.50
2019-05-19T03:27:31.767Z,12.50
2019-05-19T03:29:59.936Z,12.60
2019-05-19T03:32:30.841Z,12.60
2019-05-19T03:34:57.202Z,12.60
2019-05-19T03:37:23.573Z,12.60
2019-05-19T03:39:49.937Z,12.50
2019-05-19T03:42:16.318Z,12.60
2019-05-19T03:44:42.823Z,12.60
2019-05-19T03:47:09.238Z,12.50
2019-05-19T03:49:35.649Z,12.50
2019-05-19T03:52:02.073Z,12.40
2019-05-19T03:54:28.466Z,12.40
2019-05-19T03:56:54.996Z,12.30
2019-05-19T03:59:21.229Z,12.30
2019-05-19T04:01:47.739Z,12.30
2019-05-19T04:04:14.007Z,12.30
2019-05-19T04:06:40.388Z,12.40
2019-05-19T04:09:06.937Z,12.40
2019-05-19T04:11:33.402Z,12.40
2019-05-19T04:14:00.005Z,12.40
2019-05-19T04:16:26.383Z,12.40
2019-05-19T04:18:52.762Z,12.50
2019-05-19T04:21:19.148Z,12.60
2019-05-19T04:23:45.520Z,12.70
2019-05-19T04:26:18.381Z,12.80
2019-05-19T04:28:44.653Z,12.90
2019-05-19T04:31:11.131Z,12.90
2019-05-19T04:33:37.540Z,12.90
2019-05-19T04:36:04.012Z,13.00
2019-05-19T04:38:30.465Z,13.10
2019-05-19T04:40:56.978Z,13.20
2019-05-19T04:43:23.351Z,13.20
2019-05-19T04:45:49.775Z,13.30
2019-05-19T04:48:16.128Z,13.20
2019-05-19T04:50:42.621Z,13.20
2019-05-19T04:53:09.095Z,13.10
2019-05-19T04:55:35.460Z,13.10
2019-05-19T04:58:01.850Z,13.10
2019-05-19T05:00:28.213Z,13.10
2019-05-19T05:02:54.507Z,13.20
2019-05-19T05:05:20.978Z,13.20
2019-05-19T05:07:47.374Z,13.20
2019-05-19T05:10:13.814Z,13.20
2019-05-19T05:12:40.400Z,13.30
2019-05-19T05:15:07.114Z,13.30
2019-05-19T05:17:33.524Z,13.30
2019-05-19T05:20:02.724Z,13.30
2019-05-19T05:22:29.218Z,13.30
2019-05-19T05:24:55.718Z,13.20
2019-05-19T05:27:22.046Z,13.20
2019-05-19T05:29:48.425Z,13.20
2019-05-19T05:32:14.693Z,13.20
2019-05-19T05:34:40.961Z,13.20
2019-05-19T05:37:07.433Z,13.00
2019-05-19T05:39:33.831Z,13.00
2019-05-19T05:42:00.156Z,13.00
2019-05-19T05:44:26.415Z,13.00
2019-05-19T05:46:52.905Z,12.80
2019-05-19T05:49:19.367Z,12.70
2019-05-19T05:51:45.867Z,12.70
2019-05-19T05:54:12.360Z,12.60
2019-05-19T05:56:38.815Z,12.70
2019-05-19T05:59:05.386Z,12.80
2019-05-19T06:01:32.007Z,12.90
2019-05-19T06:03:58.363Z,12.90
2019-05-19T06:06:24.941Z,12.90
2019-05-19T06:08:51.465Z,12.90
2019-05-19T06:11:18.197Z,12.90
2019-05-19T06:13:44.773Z,12.90
2019-05-19T06:16:11.204Z,12.90
2019-05-19T06:18:37.845Z,12.90
2019-05-19T06:21:04.211Z,12.90
2019-05-19T06:23:30.564Z,12.80
2019-05-19T06:25:56.958Z,12.80
2019-05-19T06:28:23.550Z,12.90
2019-05-19T06:30:49.924Z,12.70
2019-05-19T06:33:16.503Z,12.80
2019-05-19T06:35:42.873Z,12.80
2019-05-19T06:38:09.254Z,12.90
2019-05-19T06:40:35.528Z,13.00
2019-05-19T06:43:01.923Z,13.10
2019-05-19T06:45:28.379Z,13.30
2019-05-19T06:47:54.658Z,13.40
2019-05-19T06:50:21.175Z,13.50
2019-05-19T06:52:47.665Z,13.70
2019-05-19T06:55:14.349Z,13.60
2019-05-19T06:57:40.702Z,13.60
2019-05-19T07:00:07.693Z,13.80
2019-05-19T07:02:34.149Z,13.90
2019-05-19T07:05:00.631Z,13.70
2019-05-19T07:07:27.010Z,13.70
2019-05-19T07:09:58.432Z,13.70
2019-05-19T07:12:21.413Z,13.70
2019-05-19T07:14:47.769Z,13.80
2019-05-19T07:17:14.280Z,13.90
2019-05-19T07:19:40.727Z,14.00
2019-05-19T07:22:07.217Z,14.00
2019-05-19T07:24:33.699Z,13.90
2019-05-19T07:27:00.078Z,14.00
2019-05-19T07:29:26.377Z,14.00
2019-05-19T07:31:52.861Z,13.90
2019-05-19T07:34:19.343Z,14.10
2019-05-19T07:36:45.708Z,14.10
2019-05-19T07:39:12.065Z,14.20
2019-05-19T07:41:38.553Z,14.20
2019-05-19T07:44:05.049Z,14.30
2019-05-19T07:46:31.411Z,14.40
2019-05-19T07:48:57.679Z,14.50
2019-05-19T07:51:24.285Z,14.60
2019-05-19T07:53:50.907Z,14.70
2019-05-19T07:56:17.462Z,15.00
2019-05-19T07:58:43.939Z,15.10
2019-05-19T08:01:10.529Z,15.10
2019-05-19T08:03:36.996Z,15.10
2019-05-19T08:06:03.576Z,15.10
2019-05-19T08:08:29.995Z,15.20
2019-05-19T08:10:56.385Z,15.40
2019-05-19T08:13:22.758Z,15.40
2019-05-19T08:15:49.102Z,15.50
2019-05-19T08:18:15.533Z,15.50
2019-05-19T08:20:42.185Z,15.50
2019-05-19T08:23:08.423Z,15.60
2019-05-19T08:25:34.896Z,15.70
2019-05-19T08:28:08.295Z,15.60
2019-05-19T08:30:29.747Z,15.50
2019-05-19T08:32:56.243Z,15.50
2019-05-19T08:35:22.752Z,15.50
2019-05-19T08:37:49.163Z,15.70
2019-05-19T08:40:15.563Z,15.80
2019-05-19T08:42:42.162Z,15.90
2019-05-19T08:45:08.677Z,15.90
2019-05-19T08:47:35.172Z,16.00
2019-05-19T08:50:02.464Z,16.00
2019-05-19T08:52:29.054Z,16.00
2019-05-19T08:54:55.517Z,15.90
2019-05-19T08:57:21.951Z,15.80
2019-05-19T08:59:48.373Z,15.90
2019-05-19T09:02:14.830Z,15.90
2019-05-19T09:04:41.725Z,15.90
2019-05-19T09:07:08.242Z,16.00
2019-05-19T09:09:34.746Z,16.00
2019-05-19T09:12:00.994Z,16.00
2019-05-19T09:14:27.638Z,15.90
2019-05-19T09:16:54.013Z,15.80
2019-05-19T09:19:20.414Z,15.80
2019-05-19T09:21:46.978Z,15.90
2019-05-19T09:24:13.343Z,15.70
2019-05-19T09:26:39.717Z,15.70
2019-05-19T09:29:06.355Z,15.70
2019-05-19T09:31:32.755Z,15.60
2019-05-19T09:33:59.249Z,15.60
2019-05-19T09:36:25.829Z,15.50
2019-05-19T09:38:52.365Z,15.60
2019-05-19T09:41:18.972Z,15.60
2019-05-19T09:43:45.430Z,15.60
2019-05-19T09:46:13.975Z,15.60
2019-05-19T09:48:40.335Z,15.50
2019-05-19T09:51:06.734Z,15.60
2019-05-19T09:53:33.226Z,15.60
2019-05-19T09:55:59.581Z,15.80
2019-05-19T09:58:26.133Z,15.90
2019-05-19T10:00:52.531Z,15.80
2019-05-19T10:03:19.777Z,15.90
2019-05-19T10:05:46.319Z,15.90
2019-05-19T10:08:12.786Z,16.00
2019-05-19T10:10:58.335Z,16.10
2019-05-19T10:13:24.717Z,16.00
2019-05-19T10:15:51.148Z,16.00
2019-05-19T10:18:17.642Z,15.90
2019-05-19T10:20:44.133Z,15.90
2019-05-19T10:23:10.673Z,15.90
2019-05-19T10:25:37.170Z,15.90
2019-05-19T10:28:05.488Z,15.90
2019-05-19T10:30:31.942Z,16.10
2019-05-19T10:32:58.897Z,16.30
2019-05-19T10:35:25.309Z,16.50
2019-05-19T10:37:51.756Z,16.50
2019-05-19T10:40:18.336Z,16.60
2019-05-19T10:42:44.727Z,16.70
2019-05-19T10:45:12.022Z,16.70
2019-05-19T10:47:40.398Z,16.80
2019-05-19T10:50:07.736Z,16.90
2019-05-19T10:52:34.306Z,16.70
2019-05-19T10:55:00.581Z,16.50
2019-05-19T10:57:26.960Z,16.60
2019-05-19T10:59:53.359Z,16.40
2019-05-19T11:02:19.726Z,16.50
2019-05-19T11:04:46.172Z,16.40
2019-05-19T11:07:12.652Z,16.40
2019-05-19T11:09:38.998Z,16.30
2019-05-19T11:12:05.526Z,16.20
2019-05-19T11:14:31.914Z,16.10
2019-05-19T11:16:58.297Z,16.10
2019-05-19T11:19:24.849Z,16.20
2019-05-19T11:21:51.325Z,16.10
2019-05-19T11:24:17.842Z,16.10
2019-05-19T11:26:44.231Z,16.10
2019-05-19T11:29:10.989Z,16.10
2019-05-19T11:31:37.364Z,16.10
2019-05-19T11:34:03.885Z,16.20
2019-05-19T11:36:30.224Z,16.20
2019-05-19T11:38:56.483Z,16.20
2019-05-19T11:41:23.151Z,16.10
2019-05-19T11:43:49.671Z,16.00
2019-05-19T11:46:16.165Z,16.10
2019-05-19T11:48:42.556Z,16.10
2019-05-19T11:51:08.955Z,16.10
2019-05-19T11:53:35.384Z,16.20
2019-05-19T11:56:06.755Z,16.30
2019-05-19T11:58:29.954Z,16.10
2019-05-19T12:00:56.460Z,16.20
2019-05-19T12:03:22.993Z,16.20
2019-05-19T12:05:49.500Z,16.20
2019-05-19T12:08:17.078Z,16.10
2019-05-19T12:10:43.452Z,16.10
2019-05-19T12:13:10.060Z,16.10
2019-05-19T12:15:36.553Z,16.10
2019-05-19T12:18:03.078Z,16.20
2019-05-19T12:20:29.511Z,16.30
2019-05-19T12:22:55.854Z,16.30
2019-05-19T12:25:22.303Z,16.40
2019-05-19T12:27:48.663Z,16.50
2019-05-19T12:30:19.394Z,16.50
2019-05-19T12:32:45.828Z,16.50
2019-05-19T12:43:24.419Z,16.50
2019-05-19T12:45:50.895Z,16.50
2019-05-19T12:48:17.433Z,16.40
2019-05-19T12:50:43.906Z,16.50
2019-05-19T12:53:10.216Z,16.40
2019-05-19T12:55:36.676Z,16.50
2019-05-19T12:58:03.285Z,16.50
2019-05-19T13:00:29.850Z,16.50
2019-05-19T13:02:56.266Z,16.50
2019-05-19T13:05:22.801Z,16.60
2019-05-19T13:07:49.277Z,16.70
2019-05-19T13:10:17.921Z,16.80
2019-05-19T13:12:44.336Z,16.80
2019-05-19T13:15:10.828Z,16.70
2019-05-19T13:17:37.330Z,16.80
2019-05-19T13:20:04.264Z,16.90
2019-05-19T13:22:30.750Z,16.90
2019-05-19T13:24:57.250Z,16.90
2019-05-19T13:27:23.706Z,16.80
2019-05-19T13:29:50.053Z,16.90
2019-05-19T13:32:16.330Z,17.00
2019-05-19T13:34:42.807Z,17.00
2019-05-19T13:37:09.264Z,16.90
2019-05-19T13:39:35.742Z,16.90
2019-05-19T13:42:02.348Z,17.00
2019-05-19T13:44:28.749Z,16.90
2019-05-19T13:46:55.214Z,16.80
2019-05-19T13:49:22.005Z,16.80
2019-05-19T13:51:48.462Z,17.00
2019-05-19T13:54:14.986Z,17.10
2019-05-19T13:56:41.408Z,17.10
2019-05-19T13:59:07.788Z,17.10
2019-05-19T14:01:34.406Z,17.10
2019-05-19T14:04:00.906Z,17.20
2019-05-19T14:06:27.260Z,17.20
2019-05-19T14:08:53.629Z,17.30
2019-05-19T14:11:20.146Z,17.20
2019-05-19T14:13:46.651Z,17.20
2019-05-19T14:16:13.119Z,17.00
2019-05-19T14:18:39.709Z,16.90
2019-05-19T14:21:06.205Z,16.70
2019-05-19T14:23:32.721Z,16.60
2019-05-19T14:25:59.015Z,16.50
2019-05-19T14:28:25.528Z,16.40
2019-05-19T14:30:53.062Z,16.30
2019-05-19T14:33:19.413Z,16.20
2019-05-19T14:35:45.689Z,16.10
2019-05-19T14:38:12.048Z,16.00
2019-05-19T14:40:38.430Z,16.00
2019-05-19T14:43:05.017Z,16.00
2019-05-19T14:45:31.810Z,16.00
2019-05-19T14:47:58.303Z,15.90
2019-05-19T14:50:24.771Z,16.00
2019-05-19T14:52:51.228Z,16.00
2019-05-19T14:55:17.703Z,16.00
2019-05-19T14:57:45.548Z,16.00
2019-05-19T15:00:13.854Z,16.00
2019-05-19T15:02:40.339Z,16.00
2019-05-19T15:05:07.199Z,16.00
2019-05-19T15:07:33.848Z,16.00
2019-05-19T15:10:00.221Z,16.00
2019-05-19T15:12:26.623Z,16.00
2019-05-19T15:14:53.047Z,16.00
2019-05-19T15:17:19.524Z,15.90
2019-05-19T15:19:46.079Z,16.00
2019-05-19T15:22:12.581Z,16.00
2019-05-19T15:24:39.111Z,16.10
2019-05-19T15:27:05.517Z,16.20
2019-05-19T15:29:31.874Z,16.10
2019-05-19T15:31:58.393Z,16.10
2019-05-19T15:34:24.814Z,16.30
2019-05-19T15:36:51.287Z,16.20
2019-05-19T15:39:17.752Z,16.40
2019-05-19T15:41:44.293Z,16.30
2019-05-19T15:44:13.151Z,16.40
2019-05-19T15:46:39.734Z,16.50
2019-05-19T15:49:06.272Z,16.50
2019-05-19T15:51:37.471Z,16.60
2019-05-19T15:54:01.120Z,16.70
2019-05-19T15:56:27.527Z,16.70
2019-05-19T15:58:54.089Z,16.60
2019-05-19T16:01:20.467Z,16.60
2019-05-19T16:03:47.102Z,16.70
2019-05-19T16:06:13.782Z,16.60
2019-05-19T16:08:40.283Z,16.70
2019-05-19T16:11:06.803Z,16.70
2019-05-19T16:13:33.297Z,16.70
2019-05-19T16:15:59.576Z,16.70
2019-05-19T16:18:25.945Z,16.70
2019-05-19T16:20:52.548Z,16.70
2019-05-19T16:23:19.051Z,16.70
2019-05-19T16:25:45.334Z,16.80
2019-05-19T16:28:11.859Z,16.80
2019-05-19T16:30:38.173Z,16.80
2019-05-19T16:33:04.639Z,16.80
2019-05-19T16:35:30.931Z,16.80
2019-05-19T16:37:57.561Z,16.80
2019-05-19T16:40:24.217Z,16.70
2019-05-19T16:42:50.512Z,16.70
2019-05-19T16:45:17.156Z,16.60
2019-05-19T16:47:43.643Z,16.70
2019-05-19T16:50:10.546Z,16.60
2019-05-19T16:52:36.912Z,16.70
2019-05-19T16:55:10.141Z,16.70
2019-05-19T16:57:36.744Z,16.60
2019-05-19T17:00:04.403Z,16.60
2019-05-19T17:02:30.859Z,16.50
2019-05-19T17:04:58.414Z,16.50
2019-05-19T17:07:26.125Z,16.50
2019-05-19T17:09:52.641Z,16.50
2019-05-19T17:12:19.090Z,16.50
2019-05-19T17:14:45.399Z,16.50
2019-05-19T17:17:11.807Z,16.50
2019-05-19T17:19:38.068Z,16.40
2019-05-19T17:22:04.582Z,16.40
2019-05-19T17:24:30.933Z,16.40
2019-05-19T17:26:57.299Z,16.30
2019-05-19T17:29:23.830Z,16.30
2019-05-19T17:31:50.102Z,16.30
2019-05-19T17:34:16.612Z,16.20
2019-05-19T17:36:43.207Z,16.10
2019-05-19T17:39:09.706Z,16.10
2019-05-19T17:41:36.087Z,16.00
2019-05-19T17:44:02.590Z,16.00
2019-05-19T17:46:29.115Z,15.90
2019-05-19T17:48:55.488Z,15.90
2019-05-19T17:51:21.883Z,15.80
2019-05-19T17:53:48.496Z,15.90
2019-05-19T17:56:15.489Z,15.80
2019-05-19T17:58:42.086Z,15.80
2019-05-19T18:01:08.582Z,15.90
2019-05-19T18:03:37.088Z,15.80
2019-05-19T18:06:03.578Z,15.80
2019-05-19T18:08:30.049Z,15.80
2019-05-19T18:10:56.674Z,15.70
2019-05-19T18:13:23.241Z,15.60
2019-05-19T18:15:49.621Z,15.50
2019-05-19T18:18:16.003Z,15.50
2019-05-19T18:20:42.498Z,15.50
2019-05-19T18:23:08.882Z,15.40
2019-05-19T18:25:35.435Z,15.40
2019-05-19T18:28:01.817Z,15.40
2019-05-19T18:30:28.413Z,15.40
2019-05-19T18:32:54.707Z,15.30
2019-05-19T18:35:21.113Z,15.30
2019-05-19T18:37:47.739Z,15.30
2019-05-19T18:40:14.408Z,15.30
2019-05-19T18:42:40.747Z,15.30
2019-05-19T18:45:07.719Z,15.20
2019-05-19T18:47:34.232Z,15.20
2019-05-19T18:50:00.737Z,15.10
2019-05-19T18:52:27.207Z,15.10
2019-05-19T18:54:53.676Z,15.10
2019-05-19T18:57:20.005Z,15.10
2019-05-19T18:59:47.825Z,15.10
2019-05-19T19:02:14.489Z,15.10
2019-05-19T19:04:41.013Z,15.00
2019-05-19T19:07:07.337Z,14.90
2019-05-19T19:09:33.974Z,14.90
2019-05-19T19:12:00.340Z,14.80
2019-05-19T19:14:27.730Z,14.80
2019-05-19T19:16:54.157Z,14.80
2019-05-19T19:19:20.696Z,14.80
2019-05-19T19:21:47.092Z,14.80
2019-05-19T19:24:13.548Z,14.80
2019-05-19T19:26:39.804Z,14.80
2019-05-19T19:29:06.206Z,14.90
2019-05-19T19:31:32.637Z,14.80
2019-05-19T19:33:59.011Z,14.90
2019-05-19T19:36:25.472Z,14.80
2019-05-19T19:38:51.844Z,14.80
2019-05-19T19:41:18.381Z,14.70
2019-05-19T19:43:44.779Z,14.70
2019-05-19T19:46:11.254Z,14.70
2019-05-19T19:48:37.647Z,14.70
2019-05-19T19:51:04.105Z,14.60
2019-05-19T19:53:30.627Z,14.50
2019-05-19T19:55:57.104Z,14.50
2019-05-19T19:58:23.721Z,14.60
2019-05-19T20:00:50.133Z,14.50
2019-05-19T20:03:16.592Z,14.50
2019-05-19T20:05:43.197Z,14.50
2019-05-19T20:08:09.706Z,14.40
2019-05-19T20:10:36.440Z,14.40
2019-05-19T20:13:03.551Z,14.40
2019-05-19T20:15:30.026Z,14.40
2019-05-19T20:17:56.429Z,14.30
2019-05-19T20:20:24.227Z,14.30
2019-05-19T20:22:50.783Z,14.30
2019-05-19T20:25:17.547Z,14.30
2019-05-19T20:27:44.066Z,14.30
2019-05-19T20:30:10.717Z,14.20
2019-05-19T20:32:38.265Z,14.20
2019-05-19T20:35:04.837Z,14.20
2019-05-19T20:37:31.320Z,14.10
2019-05-19T20:39:57.781Z,14.10
2019-05-19T20:42:24.238Z,14.10
2019-05-19T20:44:50.624Z,14.10
2019-05-19T20:47:16.947Z,14.00
2019-05-19T20:49:43.362Z,14.00
2019-05-19T20:52:09.609Z,13.90
2019-05-19T20:54:35.984Z,13.80
2019-05-19T20:57:02.264Z,13.80
2019-05-19T20:59:28.658Z,13.80
2019-05-19T21:01:55.015Z,13.80
2019-05-19T21:04:21.401Z,13.80
2019-05-19T21:06:47.766Z,13.70
2019-05-19T21:09:14.123Z,13.70
2019-05-19T21:11:40.498Z,13.70
2019-05-19T21:14:06.982Z,13.70
2019-05-19T21:16:33.473Z,13.70
2019-05-19T21:18:59.889Z,13.70
2019-05-19T21:21:26.274Z,13.70
2019-05-19T21:23:52.535Z,13.60
2019-05-19T21:26:18.794Z,13.60
2019-05-19T21:28:45.186Z,13.50
2019-05-19T21:31:11.517Z,13.40
2019-05-19T21:33:37.843Z,13.30
2019-05-19T21:36:04.286Z,13.20
2019-05-19T21:38:30.813Z,13.20
2019-05-19T21:40:57.353Z,13.20
2019-05-19T21:43:23.923Z,13.20
2019-05-19T21:45:50.277Z,13.20
2019-05-19T21:48:18.686Z,13.20
2019-05-19T21:50:45.059Z,13.20
2019-05-19T21:53:11.516Z,13.20
2019-05-19T21:55:37.925Z,13.10
2019-05-19T21:58:04.281Z,13.10
2019-05-19T22:00:30.644Z,13.10
2019-05-19T22:02:57.115Z,13.10
2019-05-19T22:05:23.476Z,13.10
2019-05-19T22:08:00.648Z,13.00
2019-05-19T22:10:27.264Z,12.90
2019-05-19T22:12:53.730Z,12.90
2019-05-19T22:15:20.208Z,12.80
2019-05-19T22:17:46.470Z,12.80
2019-05-19T22:20:13.083Z,12.80
2019-05-19T22:22:39.419Z,12.70
2019-05-19T22:25:05.893Z,12.70
2019-05-19T22:27:32.171Z,12.70
2019-05-19T22:29:58.514Z,12.70
2019-05-19T22:32:24.838Z,12.70
2019-05-19T22:34:51.194Z,12.70
2019-05-19T22:37:17.561Z,12.70
2019-05-19T22:39:43.925Z,12.60
2019-05-19T22:42:10.420Z,12.70
2019-05-19T22:44:36.829Z,12.60
2019-05-19T22:47:03.285Z,12.60
2019-05-19T22:49:29.671Z,12.60
2019-05-19T22:51:56.108Z,12.50
2019-05-19T22:54:22.515Z,12.60
2019-05-19T22:56:48.917Z,12.50
2019-05-19T22:59:19.669Z,12.50
2019-05-19T23:01:51.340Z,12.50
2019-05-19T23:04:11.844Z,12.50
2019-05-19T23:06:38.223Z,12.50
2019-05-19T23:09:05.182Z,12.50
2019-05-19T23:11:31.546Z,12.50
2019-05-19T23:13:57.903Z,12.50
2019-05-19T23:16:24.386Z,12.40
2019-05-19T23:18:50.768Z,12.40
2019-05-19T23:21:17.153Z,12.40
2019-05-19T23:23:43.555Z,12.40
2019-05-19T23:26:10.010Z,12.40
2019-05-19T23:28:36.422Z,12.40
2019-05-19T23:31:03.005Z,12.40
2019-05-19T23:33:29.385Z,12.40
2019-05-19T23:35:55.749Z,12.30
2019-05-19T23:38:22.149Z,12.30
2019-05-19T23:40:48.502Z,12.30
2019-05-19T23:43:15.037Z,12.30
2019-05-19T23:45:41.281Z,12.30
2019-05-19T23:48:07.664Z,12.40
2019-05-19T23:50:33.926Z,12.40
2019-05-19T23:53:00.229Z,12.40
2019-05-19T23:55:26.555Z,12.40
2019-05-19T23:57:52.959Z,12.40
